createdAt,value
2019-01-04T00:01:05.535Z,22.79
2019-01-04T00:03:32.178Z,22.68
2019-01-04T00:05:58.828Z,22.72
2019-01-04T00:08:25.481Z,22.73
2019-01-04T00:10:52.135Z,22.69
2019-01-04T00:13:18.831Z,22.69
2019-01-04T00:15:45.478Z,22.73
2019-01-04T00:18:12.114Z,22.72
2019-01-04T00:20:38.775Z,22.75
2019-01-04T00:23:05.429Z,22.73
2019-01-04T00:25:32.074Z,22.77
2019-01-04T00:27:58.720Z,22.78
2019-01-04T00:30:25.365Z,22.83
2019-01-04T00:32:52.018Z,22.83
2019-01-04T00:35:18.656Z,22.80
2019-01-04T00:37:45.310Z,22.80
2019-01-04T00:40:11.952Z,22.79
2019-01-04T00:42:38.597Z,22.75
2019-01-04T00:45:05.238Z,22.66
2019-01-04T00:47:34.715Z,22.49
2019-01-04T00:50:01.360Z,22.47
2019-01-04T00:52:28.040Z,22.52
2019-01-04T00:54:56.044Z,22.55
2019-01-04T00:57:21.328Z,22.57
2019-01-04T00:59:47.986Z,22.58
2019-01-04T01:02:14.621Z,22.66
2019-01-04T01:04:41.258Z,22.64
2019-01-04T01:07:07.913Z,22.69
2019-01-04T01:09:34.550Z,22.71
2019-01-04T01:12:01.195Z,22.73
2019-01-04T01:14:27.837Z,22.72
2019-01-04T01:16:54.528Z,22.72
2019-01-04T01:19:21.168Z,22.67
2019-01-04T01:21:47.820Z,22.37
2019-01-04T01:24:14.477Z,22.15
2019-01-04T01:26:41.266Z,22.04
2019-01-04T01:29:07.957Z,22.17
2019-01-04T01:31:34.608Z,22.33
2019-01-04T01:34:01.251Z,22.35
2019-01-04T01:36:27.906Z,22.35
2019-01-04T01:38:54.590Z,22.45
2019-01-04T01:41:21.228Z,22.45
2019-01-04T01:43:47.872Z,22.47
2019-01-04T01:46:14.544Z,22.51
2019-01-04T01:48:41.182Z,22.52
2019-01-04T01:51:07.835Z,22.55
2019-01-04T01:53:34.486Z,22.60
2019-01-04T01:56:01.126Z,22.57
2019-01-04T01:58:27.825Z,22.63
2019-01-04T02:00:54.464Z,22.62
2019-01-04T02:03:21.107Z,22.67
2019-01-04T02:05:47.774Z,22.66
2019-01-04T02:08:14.413Z,22.67
2019-01-04T02:10:41.063Z,22.62
2019-01-04T02:13:07.705Z,22.50
2019-01-04T02:15:34.397Z,22.49
2019-01-04T02:18:01.036Z,22.46
2019-01-04T02:20:27.698Z,22.46
2019-01-04T02:22:54.395Z,22.49
2019-01-04T02:25:21.087Z,22.53
2019-01-04T02:27:47.704Z,22.53
2019-01-04T02:30:14.350Z,22.55
2019-01-04T02:32:42.358Z,22.56
2019-01-04T02:35:07.713Z,22.57
2019-01-04T02:37:34.318Z,22.61
2019-01-04T02:40:00.956Z,22.62
2019-01-04T02:42:27.653Z,22.63
2019-01-04T02:44:54.290Z,22.64
2019-01-04T02:47:20.987Z,22.64
2019-01-04T02:49:47.625Z,22.64
2019-01-04T02:52:14.286Z,22.65
2019-01-04T02:54:40.936Z,22.67
2019-01-04T02:57:07.574Z,22.67
2019-01-04T02:59:34.277Z,22.69
2019-01-04T03:02:00.917Z,22.71
2019-01-04T03:04:27.604Z,22.69
2019-01-04T03:06:54.240Z,22.71
2019-01-04T03:09:20.932Z,22.68
2019-01-04T03:11:48.935Z,22.68
2019-01-04T03:14:14.567Z,22.69
2019-01-04T03:16:41.209Z,22.67
2019-01-04T03:19:07.853Z,22.64
2019-01-04T03:21:34.493Z,22.66
2019-01-04T03:24:01.193Z,22.64
2019-01-04T03:26:27.887Z,22.58
2019-01-04T03:28:54.527Z,22.59
2019-01-04T03:31:21.187Z,22.58
2019-01-04T03:33:47.813Z,22.55
2019-01-04T03:36:14.463Z,22.56
2019-01-04T03:38:41.149Z,22.57
2019-01-04T03:41:07.789Z,22.57
2019-01-04T03:43:34.544Z,22.56
2019-01-04T03:46:01.195Z,22.53
2019-01-04T03:48:27.888Z,22.39
2019-01-04T03:50:54.534Z,22.32
2019-01-04T03:53:21.182Z,22.41
2019-01-04T03:55:47.823Z,22.41
2019-01-04T03:58:14.468Z,22.42
2019-01-04T04:00:41.120Z,22.43
2019-01-04T04:03:07.756Z,22.44
2019-01-04T04:05:34.414Z,22.49
2019-01-04T04:08:01.054Z,22.51
2019-01-04T04:10:27.719Z,22.58
2019-01-04T04:12:54.365Z,22.56
2019-01-04T04:15:21.019Z,22.61
2019-01-04T04:17:47.651Z,22.68
2019-01-04T04:20:14.352Z,22.65
2019-01-04T04:22:41.036Z,22.65
2019-01-04T04:25:07.661Z,22.00
2019-01-04T04:27:34.312Z,21.39
2019-01-04T04:30:01.092Z,20.82
2019-01-04T04:32:27.728Z,20.68
2019-01-04T04:34:54.430Z,20.36
2019-01-04T04:37:21.095Z,20.06
2019-01-04T04:39:47.752Z,20.03
2019-01-04T04:42:14.438Z,20.63
2019-01-04T04:44:41.097Z,21.25
2019-01-04T04:47:07.899Z,21.71
2019-01-04T04:49:34.544Z,21.82
2019-01-04T04:52:01.174Z,21.80
2019-01-04T04:54:27.865Z,21.80
2019-01-04T04:56:54.563Z,21.82
2019-01-04T04:59:21.254Z,21.89
2019-01-04T05:01:47.899Z,22.12
2019-01-04T05:04:14.537Z,22.27
2019-01-04T05:06:41.245Z,22.20
2019-01-04T05:09:07.893Z,22.31
2019-01-04T05:11:34.538Z,22.24
2019-01-04T05:14:01.182Z,22.34
2019-01-04T05:16:27.875Z,22.33
2019-01-04T05:18:54.512Z,22.30
2019-01-04T05:21:21.148Z,22.40
2019-01-04T05:23:47.803Z,22.36
2019-01-04T05:26:14.448Z,22.40
2019-01-04T05:28:41.104Z,22.46
2019-01-04T05:31:07.749Z,22.39
2019-01-04T05:33:34.397Z,22.37
2019-01-04T05:36:01.041Z,22.33
2019-01-04T05:38:27.699Z,22.36
2019-01-04T05:40:54.352Z,22.35
2019-01-04T05:43:21.042Z,22.49
2019-01-04T05:45:47.677Z,22.30
2019-01-04T05:48:14.329Z,22.33
2019-01-04T05:50:41.031Z,22.25
2019-01-04T05:53:07.675Z,22.23
2019-01-04T05:55:34.374Z,22.25
2019-01-04T05:58:01.022Z,22.30
2019-01-04T06:00:27.668Z,22.35
2019-01-04T06:02:54.337Z,22.38
2019-01-04T06:05:20.977Z,22.43
2019-01-04T06:07:47.631Z,22.44
2019-01-04T06:10:14.298Z,22.46
2019-01-04T06:12:40.990Z,22.46
2019-01-04T06:15:07.631Z,22.53
2019-01-04T06:17:34.330Z,22.54
2019-01-04T06:20:00.975Z,22.57
2019-01-04T06:22:27.633Z,22.61
2019-01-04T06:24:54.269Z,22.66
2019-01-04T06:27:20.919Z,22.72
2019-01-04T06:29:47.622Z,22.87
2019-01-04T06:32:14.258Z,22.72
2019-01-04T06:34:40.903Z,22.70
2019-01-04T06:37:07.675Z,22.72
2019-01-04T06:39:34.335Z,22.75
2019-01-04T06:42:01.029Z,22.75
2019-01-04T06:44:27.677Z,22.77
2019-01-04T06:46:54.454Z,22.90
2019-01-04T06:49:21.099Z,22.80
2019-01-04T06:51:47.812Z,22.97
2019-01-04T06:54:14.557Z,22.87
2019-01-04T06:56:41.214Z,22.80
2019-01-04T06:59:07.856Z,22.74
2019-01-04T07:01:34.509Z,22.87
2019-01-04T07:04:01.170Z,22.87
2019-01-04T07:06:28.010Z,22.89
2019-01-04T07:08:54.623Z,22.60
2019-01-04T07:11:21.316Z,22.57
2019-01-04T07:13:47.957Z,22.53
2019-01-04T07:16:14.600Z,22.58
2019-01-04T07:18:41.255Z,22.73
2019-01-04T07:21:08.023Z,22.69
2019-01-04T07:23:34.716Z,22.79
2019-01-04T07:26:01.397Z,22.85
2019-01-04T07:28:28.020Z,22.86
2019-01-04T07:30:54.694Z,22.85
2019-01-04T07:33:21.333Z,22.88
2019-01-04T07:35:48.425Z,22.86
2019-01-04T07:38:15.117Z,22.97
2019-01-04T07:40:41.762Z,23.06
2019-01-04T07:43:08.417Z,23.05
2019-01-04T07:45:35.073Z,23.03
2019-01-04T07:48:01.715Z,23.31
2019-01-04T07:50:28.373Z,23.24
2019-01-04T07:52:55.037Z,23.27
2019-01-04T07:55:21.729Z,23.27
2019-01-04T07:57:48.401Z,23.20
2019-01-04T08:00:15.140Z,23.20
2019-01-04T08:02:43.031Z,23.14
2019-01-04T08:05:09.654Z,22.95
2019-01-04T08:07:36.320Z,23.00
2019-01-04T08:10:03.021Z,23.13
2019-01-04T08:12:29.749Z,23.18
2019-01-04T08:14:56.399Z,23.24
2019-01-04T08:17:23.054Z,23.15
2019-01-04T08:19:49.694Z,23.32
2019-01-04T08:22:16.341Z,23.35
2019-01-04T08:24:43.005Z,23.34
2019-01-04T08:27:09.662Z,23.40
2019-01-04T08:29:36.347Z,23.52
2019-01-04T08:32:03.070Z,23.44
2019-01-04T08:34:31.777Z,23.34
2019-01-04T08:36:58.428Z,23.33
2019-01-04T08:39:25.088Z,23.26
2019-01-04T08:41:51.789Z,23.26
2019-01-04T08:44:18.595Z,23.17
2019-01-04T08:46:45.309Z,23.24
2019-01-04T08:49:11.957Z,23.13
2019-01-04T08:51:38.610Z,23.15
2019-01-04T08:54:05.333Z,23.22
2019-01-04T08:56:31.991Z,23.26
2019-01-04T08:58:58.702Z,23.32
2019-01-04T09:01:25.402Z,23.49
2019-01-04T09:03:52.076Z,23.59
2019-01-04T09:06:18.809Z,23.62
2019-01-04T09:08:45.454Z,23.96
2019-01-04T09:11:14.205Z,23.78
2019-01-04T09:13:40.888Z,23.79
2019-01-04T09:16:07.570Z,23.79
2019-01-04T09:18:34.248Z,23.83
2019-01-04T09:21:00.952Z,23.66
2019-01-04T09:23:27.616Z,23.68
2019-01-04T09:25:54.268Z,23.85
2019-01-04T09:28:21.043Z,23.68
2019-01-04T09:30:47.752Z,23.56
2019-01-04T09:33:14.398Z,23.31
2019-01-04T09:35:41.094Z,23.33
2019-01-04T09:38:07.767Z,23.46
2019-01-04T09:40:36.593Z,23.43
2019-01-04T09:43:03.241Z,23.44
2019-01-04T09:45:29.886Z,23.46
2019-01-04T09:47:56.594Z,23.64
2019-01-04T09:50:23.255Z,23.64
2019-01-04T09:52:49.994Z,23.71
2019-01-04T09:55:16.659Z,23.76
2019-01-04T09:57:43.345Z,23.61
2019-01-04T10:00:09.993Z,23.50
2019-01-04T10:02:36.650Z,23.55
2019-01-04T10:05:03.284Z,23.38
2019-01-04T10:07:30.017Z,22.97
2019-01-04T10:09:56.670Z,22.80
2019-01-04T10:12:23.345Z,22.89
2019-01-04T10:14:50.013Z,23.04
2019-01-04T10:17:17.088Z,23.34
2019-01-04T10:19:43.757Z,23.32
2019-01-04T10:22:10.431Z,23.43
2019-01-04T10:24:37.088Z,23.51
2019-01-04T10:27:03.758Z,23.48
2019-01-04T10:29:30.464Z,23.58
2019-01-04T10:31:57.120Z,23.61
2019-01-04T10:34:23.797Z,23.63
2019-01-04T10:36:50.456Z,23.71
2019-01-04T10:39:17.115Z,23.76
2019-01-04T10:41:43.790Z,23.63
2019-01-04T10:44:12.821Z,23.76
2019-01-04T10:46:40.654Z,23.57
2019-01-04T10:49:06.208Z,23.53
2019-01-04T10:51:32.908Z,23.45
2019-01-04T10:53:59.598Z,23.36
2019-01-04T10:56:26.208Z,23.62
2019-01-04T10:58:52.911Z,23.50
2019-01-04T11:01:19.635Z,23.51
2019-01-04T11:03:46.353Z,23.57
2019-01-04T11:06:13.064Z,23.57
2019-01-04T11:08:39.703Z,23.62
2019-01-04T11:11:06.376Z,23.83
2019-01-04T11:13:33.084Z,23.77
2019-01-04T11:15:59.812Z,23.65
2019-01-04T11:18:26.482Z,23.64
2019-01-04T11:20:53.127Z,23.56
2019-01-04T11:23:19.841Z,23.49
2019-01-04T11:25:46.623Z,23.49
2019-01-04T11:28:13.276Z,23.47
2019-01-04T11:30:39.948Z,23.68
2019-01-04T11:33:06.726Z,23.59
2019-01-04T11:35:33.429Z,23.40
2019-01-04T11:38:00.107Z,23.49
2019-01-04T11:40:27.167Z,23.54
2019-01-04T11:42:53.823Z,23.57
2019-01-04T11:45:20.519Z,23.67
2019-01-04T11:47:47.182Z,23.64
2019-01-04T11:50:13.916Z,23.76
2019-01-04T11:52:40.674Z,23.86
2019-01-04T11:55:07.335Z,23.82
2019-01-04T11:57:33.991Z,23.83
2019-01-04T12:00:00.705Z,23.88
2019-01-04T12:02:27.393Z,23.66
2019-01-04T12:04:54.151Z,23.68
2019-01-04T12:07:20.796Z,23.65
2019-01-04T12:09:47.516Z,23.84
2019-01-04T12:12:14.200Z,23.70
2019-01-04T12:14:41.506Z,23.76
2019-01-04T12:17:07.601Z,23.66
2019-01-04T12:19:34.385Z,23.47
2019-01-04T12:22:01.141Z,23.25
2019-01-04T12:24:27.815Z,23.33
2019-01-04T12:26:54.925Z,23.40
2019-01-04T12:29:21.570Z,23.59
2019-01-04T12:31:48.222Z,23.62
2019-01-04T12:34:16.758Z,23.83
2019-01-04T12:36:41.565Z,23.67
2019-01-04T12:39:08.220Z,23.79
2019-01-04T12:41:34.893Z,23.70
2019-01-04T12:44:01.537Z,23.70
2019-01-04T12:46:28.300Z,23.82
2019-01-04T12:48:54.961Z,23.65
2019-01-04T12:51:21.598Z,23.69
2019-01-04T12:53:48.252Z,23.66
2019-01-04T12:56:14.915Z,23.81
2019-01-04T12:58:41.646Z,23.67
2019-01-04T13:01:08.448Z,23.58
2019-01-04T13:03:35.108Z,23.59
2019-01-04T13:06:01.845Z,23.36
2019-01-04T13:08:28.533Z,23.40
2019-01-04T13:10:55.290Z,23.46
2019-01-04T13:13:22.034Z,23.56
2019-01-04T13:15:48.771Z,23.59
2019-01-04T13:18:15.434Z,23.66
2019-01-04T13:20:42.180Z,23.65
2019-01-04T13:23:08.874Z,23.60
2019-01-04T13:25:35.513Z,23.58
2019-01-04T13:28:02.167Z,23.56
2019-01-04T13:30:28.919Z,23.54
2019-01-04T13:32:55.571Z,23.65
2019-01-04T13:35:22.218Z,23.66
2019-01-04T13:37:48.919Z,23.60
2019-01-04T13:40:15.678Z,23.59
2019-01-04T13:42:42.327Z,23.62
2019-01-04T13:45:09.144Z,23.54
2019-01-04T13:47:35.882Z,23.53
2019-01-04T13:50:02.522Z,23.38
2019-01-04T13:52:30.280Z,23.50
2019-01-04T13:54:57.022Z,23.49
2019-01-04T13:57:23.676Z,23.49
2019-01-04T13:59:50.369Z,23.60
2019-01-04T14:02:17.046Z,23.61
2019-01-04T14:04:43.922Z,23.68
2019-01-04T14:07:10.549Z,23.67
2019-01-04T14:09:37.254Z,23.85
2019-01-04T14:12:03.895Z,23.86
2019-01-04T14:14:30.544Z,23.86
2019-01-04T14:16:57.244Z,23.84
2019-01-04T14:19:23.886Z,23.63
2019-01-04T14:21:50.545Z,23.52
2019-01-04T14:24:17.287Z,23.49
2019-01-04T14:26:43.940Z,23.49
2019-01-04T14:29:10.593Z,23.41
2019-01-04T14:31:37.303Z,23.46
2019-01-04T14:34:03.991Z,23.27
2019-01-04T14:36:30.694Z,23.13
2019-01-04T14:38:59.486Z,23.18
2019-01-04T14:41:26.358Z,23.24
2019-01-04T14:43:52.983Z,23.34
2019-01-04T14:46:19.637Z,23.33
2019-01-04T14:48:46.278Z,23.40
2019-01-04T14:51:13.078Z,23.50
2019-01-04T14:53:39.874Z,23.45
2019-01-04T14:56:06.583Z,23.41
2019-01-04T14:58:33.230Z,23.40
2019-01-04T15:00:59.888Z,23.40
2019-01-04T15:03:26.576Z,23.41
2019-01-04T15:05:53.274Z,23.41
2019-01-04T15:08:19.939Z,23.35
2019-01-04T15:10:46.595Z,23.40
2019-01-04T15:13:13.261Z,23.38
2019-01-04T15:15:40.048Z,23.43
2019-01-04T15:18:06.709Z,23.28
2019-01-04T15:20:33.382Z,23.18
2019-01-04T15:23:00.141Z,23.21
2019-01-04T15:25:26.804Z,23.24
2019-01-04T15:27:53.459Z,23.22
2019-01-04T15:30:20.135Z,23.22
2019-01-04T15:32:46.791Z,23.31
2019-01-04T15:35:13.457Z,23.30
2019-01-04T15:37:40.107Z,23.36
2019-01-04T15:40:07.135Z,23.39
2019-01-04T15:42:33.784Z,23.36
2019-01-04T15:45:00.426Z,23.54
2019-01-04T15:47:27.082Z,23.43
2019-01-04T15:49:53.800Z,23.47
2019-01-04T15:52:20.441Z,23.41
2019-01-04T15:54:47.109Z,23.33
2019-01-04T15:57:13.776Z,23.33
2019-01-04T15:59:40.428Z,23.34
2019-01-04T16:02:07.123Z,23.20
2019-01-04T16:04:33.775Z,23.11
2019-01-04T16:07:00.435Z,23.07
2019-01-04T16:09:27.103Z,23.14
2019-01-04T16:11:53.782Z,23.22
2019-01-04T16:14:21.510Z,23.19
2019-01-04T16:16:48.161Z,23.19
2019-01-04T16:19:14.846Z,23.23
2019-01-04T16:21:41.493Z,23.33
2019-01-04T16:24:08.136Z,23.38
2019-01-04T16:26:34.792Z,23.31
2019-01-04T16:29:01.440Z,23.27
2019-01-04T16:31:28.166Z,23.27
2019-01-04T16:33:54.921Z,23.28
2019-01-04T16:36:21.574Z,23.16
2019-01-04T16:38:48.234Z,23.22
2019-01-04T16:41:14.872Z,23.24
2019-01-04T16:43:41.512Z,23.18
2019-01-04T16:46:08.165Z,23.16
2019-01-04T16:48:34.810Z,23.06
2019-01-04T16:51:01.450Z,22.99
2019-01-04T16:53:28.156Z,23.05
2019-01-04T16:55:54.793Z,23.09
2019-01-04T16:58:21.466Z,23.02
2019-01-04T17:00:48.112Z,23.08
2019-01-04T17:03:14.790Z,23.09
2019-01-04T17:05:41.436Z,23.10
2019-01-04T17:08:08.093Z,23.11
2019-01-04T17:10:34.749Z,23.12
2019-01-04T17:13:01.394Z,23.13
2019-01-04T17:15:28.052Z,23.15
2019-01-04T17:17:54.693Z,23.15
2019-01-04T17:20:21.354Z,23.17
2019-01-04T17:22:47.994Z,23.14
2019-01-04T17:25:14.659Z,23.15
2019-01-04T17:27:41.308Z,23.10
2019-01-04T17:30:07.964Z,23.13
2019-01-04T17:32:34.618Z,22.98
2019-01-04T17:35:01.280Z,22.89
2019-01-04T17:37:27.932Z,22.92
2019-01-04T17:39:54.571Z,22.94
2019-01-04T17:42:21.247Z,22.95
2019-01-04T17:44:47.894Z,22.99
2019-01-04T17:47:14.549Z,23.00
2019-01-04T17:49:41.256Z,23.03
2019-01-04T17:52:07.893Z,23.03
2019-01-04T17:54:34.536Z,23.02
2019-01-04T17:57:01.193Z,23.03
2019-01-04T17:59:27.896Z,23.03
2019-01-04T18:01:54.545Z,23.03
2019-01-04T18:04:21.185Z,23.06
2019-01-04T18:06:47.839Z,23.09
2019-01-04T18:09:14.493Z,23.03
2019-01-04T18:11:41.142Z,23.09
2019-01-04T18:14:07.876Z,23.10
2019-01-04T18:16:34.518Z,22.99
2019-01-04T18:19:01.166Z,22.88
2019-01-04T18:21:27.822Z,22.89
2019-01-04T18:23:54.458Z,22.88
2019-01-04T18:26:24.325Z,22.88
2019-01-04T18:28:47.833Z,22.92
2019-01-04T18:31:14.491Z,22.87
2019-01-04T18:33:41.175Z,22.89
2019-01-04T18:36:07.825Z,22.91
2019-01-04T18:38:34.478Z,22.92
2019-01-04T18:41:01.136Z,22.93
2019-01-04T18:43:27.785Z,22.91
2019-01-04T18:45:54.434Z,22.94
2019-01-04T18:48:21.106Z,22.97
2019-01-04T18:50:47.754Z,22.71
2019-01-04T18:53:14.409Z,22.36
2019-01-04T18:55:41.044Z,22.10
2019-01-04T18:58:07.699Z,22.16
2019-01-04T19:00:34.354Z,22.34
2019-01-04T19:03:00.995Z,22.43
2019-01-04T19:05:27.643Z,22.45
2019-01-04T19:07:55.082Z,22.50
2019-01-04T19:10:21.817Z,22.55
2019-01-04T19:12:48.514Z,22.54
2019-01-04T19:15:15.166Z,22.57
2019-01-04T19:17:41.810Z,22.58
2019-01-04T19:20:08.478Z,22.56
2019-01-04T19:22:35.164Z,22.59
2019-01-04T19:25:01.828Z,22.68
2019-01-04T19:27:28.482Z,22.76
2019-01-04T19:29:55.119Z,22.67
2019-01-04T19:32:21.772Z,22.63
2019-01-04T19:34:48.423Z,22.64
2019-01-04T19:37:15.075Z,22.66
2019-01-04T19:39:41.708Z,22.70
2019-01-04T19:42:08.350Z,22.68
2019-01-04T19:44:35.046Z,22.73
2019-01-04T19:47:01.703Z,22.73
2019-01-04T19:49:28.353Z,22.70
2019-01-04T19:51:55.010Z,22.74
2019-01-04T19:54:21.661Z,22.76
2019-01-04T19:56:48.314Z,22.74
2019-01-04T19:59:14.957Z,22.76
2019-01-04T20:01:41.601Z,22.73
2019-01-04T20:04:08.249Z,22.75
2019-01-04T20:06:34.900Z,22.74
2019-01-04T20:09:01.544Z,22.76
2019-01-04T20:11:28.189Z,22.74
2019-01-04T20:13:54.835Z,22.72
2019-01-04T20:16:21.477Z,22.71
2019-01-04T20:18:48.136Z,22.73
2019-01-04T20:21:14.777Z,22.74
2019-01-04T20:23:41.428Z,22.74
2019-01-04T20:26:08.072Z,22.75
2019-01-04T20:28:34.716Z,22.74
2019-01-04T20:31:01.369Z,22.74
2019-01-04T20:33:28.008Z,22.73
2019-01-04T20:35:54.652Z,22.63
2019-01-04T20:38:21.290Z,22.55
2019-01-04T20:40:47.988Z,22.54
2019-01-04T20:43:14.624Z,22.54
2019-01-04T20:45:41.275Z,22.54
2019-01-04T20:48:07.931Z,22.55
2019-01-04T20:50:34.583Z,22.63
2019-01-04T20:53:01.274Z,22.63
2019-01-04T20:55:27.915Z,22.63
2019-01-04T20:57:54.549Z,22.65
2019-01-04T21:00:21.200Z,22.65
2019-01-04T21:02:47.891Z,22.67
2019-01-04T21:05:14.540Z,22.68
2019-01-04T21:07:41.190Z,22.70
2019-01-04T21:10:07.846Z,22.65
2019-01-04T21:12:34.496Z,22.68
2019-01-04T21:15:01.164Z,22.68
2019-01-04T21:17:27.801Z,22.67
2019-01-04T21:19:54.459Z,22.70
2019-01-04T21:22:21.105Z,22.68
2019-01-04T21:24:47.748Z,22.73
2019-01-04T21:27:14.455Z,22.75
2019-01-04T21:29:41.103Z,22.73
2019-01-04T21:32:07.804Z,22.72
2019-01-04T21:34:34.495Z,22.73
2019-01-04T21:37:01.083Z,22.76
2019-01-04T21:39:27.742Z,22.74
2019-01-04T21:41:54.380Z,22.76
2019-01-04T21:44:21.045Z,22.75
2019-01-04T21:46:47.690Z,22.66
2019-01-04T21:49:14.346Z,22.52
2019-01-04T21:51:40.985Z,22.52
2019-01-04T21:54:07.690Z,22.55
2019-01-04T21:56:34.334Z,22.54
2019-01-04T21:59:01.023Z,22.55
2019-01-04T22:01:27.660Z,22.60
2019-01-04T22:03:54.303Z,22.62
2019-01-04T22:06:20.983Z,22.63
2019-01-04T22:08:47.622Z,22.68
2019-01-04T22:11:14.324Z,22.67
2019-01-04T22:13:40.976Z,22.69
2019-01-04T22:16:07.630Z,22.67
2019-01-04T22:18:34.262Z,22.67
2019-01-04T22:21:00.958Z,22.69
2019-01-04T22:23:27.616Z,22.69
2019-01-04T22:25:54.319Z,22.70
2019-01-04T22:28:20.954Z,22.71
2019-01-04T22:30:47.594Z,22.70
2019-01-04T22:33:14.234Z,22.69
2019-01-04T22:35:40.941Z,22.72
2019-01-04T22:38:07.588Z,22.74
2019-01-04T22:40:34.238Z,22.73
2019-01-04T22:43:00.888Z,22.72
2019-01-04T22:45:27.566Z,22.75
2019-01-04T22:47:54.272Z,22.76
2019-01-04T22:50:21.197Z,22.75
2019-01-04T22:52:47.561Z,22.78
2019-01-04T22:55:14.205Z,22.73
2019-01-04T22:57:40.859Z,22.72
2019-01-04T23:00:07.504Z,22.63
2019-01-04T23:02:34.162Z,22.47
2019-01-04T23:05:00.856Z,22.45
2019-01-04T23:07:27.555Z,22.49
2019-01-04T23:09:54.212Z,22.46
2019-01-04T23:12:20.905Z,22.50
2019-01-04T23:14:47.557Z,22.54
2019-01-04T23:17:14.210Z,22.58
2019-01-04T23:19:40.866Z,22.57
2019-01-04T23:22:07.537Z,22.58
2019-01-04T23:24:34.239Z,22.58
2019-01-04T23:27:00.884Z,22.63
2019-01-04T23:29:27.541Z,22.61
2019-01-04T23:31:54.255Z,22.62
2019-01-04T23:34:20.996Z,22.62
2019-01-04T23:36:47.640Z,22.67
2019-01-04T23:39:14.280Z,22.66
2019-01-04T23:41:41.024Z,22.66
2019-01-04T23:44:07.663Z,22.65
2019-01-04T23:46:34.312Z,22.69
2019-01-04T23:49:00.969Z,22.71
2019-01-04T23:51:27.618Z,22.70
2019-01-04T23:53:54.322Z,22.70
2019-01-04T23:56:20.969Z,22.72
2019-01-04T23:58:47.664Z,22.71
